Latest Coastal Weather Observations for Truscott

IDD60701

Issued at 11:31 pm CST Friday 24 March 2017 (issued every 10 minutes, with the page automatically refreshed every 10 minutes)

About coastal observations | Map of coastal stations | Coastal observations for NT | Marine services | Other Formats
Station Details ID: 001020 Name: TRUSCOTT Lat: -14.09 Lon: 126.39 Height: 51.0 m
Data from the previous 72 hours. | See also: Recent months at Truscott
Date/Time
CST
Temp
°C
Wind Pressure Rain since
9am
mm
Weather Cloud Vis
km
Sea
Height
m
Swell
Dir  Spd
kts
Gust
kts
hPa Trend Height
m
Period
s
Dir
24/11:30pm 28.6 WSW 4 6 1008.6 - 0.0 - Partly cloudy 10 - - - -
24/11:00pm 28.6 W 4 6 1008.5 - 0.0 - Partly cloudy 10 - - - -
24/10:30pm 28.6 W 3 4 1007.9 - 0.0 - - 10 - - - -
24/10:00pm 28.5 W 3 4 1008.4 - 0.0 - Partly cloudy 10 - - - -
24/09:30pm 28.8 W 3 5 1008.2 - 0.0 - - 10 - - - -
24/09:00pm 28.7 WNW 3 5 1007.7 - 0.0 - - 10 - - - -
24/08:30pm 29.1 W 4 6 1007.3 - 0.0 - Partly cloudy 10 - - - -
24/08:00pm 29.1 WNW 6 8 1006.6 - 0.0 - Partly cloudy 10 - - - -
24/07:30pm 29.5 W 4 6 1006.1 - 0.0 - Partly cloudy 10 - - - -
24/07:00pm 30.0 W 7 11 1006.2 - 0.0 - - 10 - - - -
24/06:30pm 30.6 WSW 8 12 1006.1 - 0.0 - - 10 - - - -
24/06:00pm 30.9 W 10 14 1005.8 - 0.0 - - 10 - - - -
24/05:30pm 31.0 W 9 14 1005.7 - 0.0 - - 10 - - - -
24/05:00pm 30.6 W 10 16 1005.8 - 0.0 - - 10 - - - -
24/04:30pm 30.7 W 9 14 1005.7 - 0.0 - - 10 - - - -
24/04:00pm 31.1 W 9 13 1006.4 - 0.0 - - 10 - - - -
24/03:30pm 31.1 W 9 14 1006.8 - 0.0 - - 10 - - - -
24/03:00pm 31.0 W 9 17 1007.0 - 0.0 - - 10 - - - -
24/02:30pm 30.9 W 12 16 1007.1 - 0.0 - Partly cloudy 10 - - - -
24/02:00pm 31.2 W 10 16 1007.3 - 0.0 - Partly cloudy 10 - - - -
24/01:30pm 30.7 W 12 17 1007.3 - 0.0 - Partly cloudy 10 - - - -
24/01:00pm 31.1 W 11 16 1008.3 - 0.0 - - 10 - - - -
24/12:30pm 30.9 W 10 17 1009.0 - 0.0 - Partly cloudy 10 - - - -
24/12:00pm 30.9 W 9 13 1009.5 - 0.0 - Partly cloudy 10 - - - -
24/11:30am 31.4 W 10 15 1009.9 - 0.0 - Partly cloudy 10 - - - -
24/11:00am 30.3 W 10 14 1010.2 - 0.0 - Partly cloudy 10 - - - -
24/10:30am 30.4 WSW 7 9 1010.0 - 0.0 - - 10 - - - -
24/10:00am 29.5 WSW 7 9 1010.5 - 0.0 - - 10 - - - -
24/09:30am 29.5 WSW 8 12 1010.5 - 0.0 - - 10 - - - -
24/09:00am 29.0 WSW 7 10 1010.2 - 0.0 - - 10 - - - -
24/08:30am 28.3 SW 7 12 1009.9 - 0.0 - - 10 - - - -
24/08:00am 27.7 WSW 6 8 1009.7 - 0.0 - - 10 - - - -
24/07:30am 27.3 SW 4 5 1009.0 - 0.0 - - 10 - - - -
24/07:00am 27.6 SW 3 5 1009.4 - 0.0 - - 10 - - - -
24/06:30am 27.8 SSW 5 6 1009.0 - 0.0 - - 10 - - - -
24/06:00am 27.9 SW 7 10 1008.7 - 0.0 - - 10 - - - -
24/05:30am 28.1 WSW 7 11 1008.7 - 0.0 - - 10 - - - -
24/05:00am 28.2 WSW 8 13 1008.2 - 0.0 - - 10 - - - -
24/04:30am 28.3 WSW 10 14 1007.8 - 0.0 - - 10 - - - -
24/04:00am 28.3 WSW 9 13 1008.3 - 0.0 - - 10 - - - -
24/03:30am 28.3 WSW 9 15 1008.6 - 0.0 - - 10 - - - -
24/03:00am 28.5 WSW 11 16 1008.5 - 0.0 - Partly cloudy 10 - - - -
24/02:30am 28.4 W 10 15 1008.5 - 0.0 - - 10 - - - -
24/02:00am 28.5 W 9 14 1009.1 - 0.0 - Partly cloudy 10 - - - -
24/01:30am 28.6 W 8 11 1008.9 - 0.0 - - 10 - - - -
24/01:00am 28.6 WSW 8 11 1009.6 - 0.0 - - 10 - - - -
24/12:30am 28.4 W 6 9 1009.8 - 0.0 - - 10 - - - -
24/12:00am 28.6 WSW 7 10 1009.6 - 0.0 - - 10 - - - -
 
Date/Time
CST
Temp
°C
Wind Pressure Rain since
9am
mm
Weather Cloud Vis
km
Sea
Height
m
Swell
Dir  Spd
kts
Gust
kts
hPa Trend Height
m
Period
s
Dir
23/11:30pm 28.8 WSW 6 10 1009.9 - 0.0 - - 10 - - - -
23/11:00pm 28.9 WSW 7 10 1010.0 - 0.0 - - 10 - - - -
23/10:30pm 29.0 WSW 7 10 1009.4 - 0.0 - - 10 - - - -
23/10:00pm 29.1 WSW 8 12 1009.5 - 0.0 - - 10 - - - -
23/09:30pm 29.1 WSW 8 12 1009.3 - 0.0 - - 10 - - - -
23/09:00pm 29.1 WSW 9 15 1009.1 - 0.0 - - 10 - - - -
23/08:30pm 29.0 WSW 10 14 1008.7 - 0.0 - - 10 - - - -
23/08:00pm 29.1 WSW 10 15 1008.2 - 0.0 - - 10 - - - -
23/07:30pm 29.2 W 11 16 1007.4 - 0.0 - - 10 - - - -
23/07:00pm 29.3 WSW 11 18 1007.6 - 0.0 - - 10 - - - -
23/06:30pm 29.5 W 12 19 1007.1 - 0.0 - - 10 - - - -
23/06:00pm 29.8 WSW 13 19 1007.3 - 0.0 - - 10 - - - -
23/05:30pm 30.0 W 12 19 1007.5 - 0.0 - - 10 - - - -
23/05:00pm 30.3 W 12 21 1007.6 - 0.0 - - 10 - - - -
23/04:30pm 30.5 W 14 19 1007.1 - 0.0 - - 10 - - - -
23/04:00pm 31.1 W 11 19 1007.8 - 0.0 - - 10 - - - -
23/03:30pm 31.6 W 11 16 1007.9 - 0.0 - Partly cloudy 10 - - - -
23/03:00pm 31.1 W 13 19 1008.1 - 0.0 - - 10 - - - -
23/02:30pm 31.4 W 13 19 1008.4 - 0.0 - - 10 - - - -
23/02:00pm 31.3 W 12 17 1008.7 - 0.0 - - 10 - - - -
23/01:30pm 31.4 W 9 15 1008.8 - 0.0 - - 10 - - - -
23/01:00pm 32.0 WNW 8 12 1009.5 - 0.0 - - 10 - - - -
23/12:30pm 31.9 WSW 8 12 1009.8 - 0.0 - - 10 - - - -
23/12:00pm 31.9 SW 9 15 1009.9 - 0.0 - - 10 - - - -
23/11:30am 31.1 SW 9 13 1010.4 - 0.0 - - 10 - - - -
23/11:00am 31.1 SSW 9 14 1010.5 - 0.0 - - 10 - - - -
23/10:30am 30.3 SW 10 13 1010.0 - 0.0 - - 10 - - - -
23/10:00am 29.9 SW 11 16 1010.3 - 0.0 - - 10 - - - -
23/09:30am 29.2 SW 11 15 1010.2 - 0.0 - - 10 - - - -
23/09:00am 28.6 SW 9 15 1010.1 - 0.0 - - 10 - - - -
23/08:30am 28.2 SW 9 13 1010.0 - 0.0 - - 10 - - - -
23/08:00am 28.1 SW 8 11 1010.0 - 0.0 - - 10 - - - -
23/07:30am 27.8 SW 10 13 1009.4 - 0.0 - - 10 - - - -
23/07:00am 27.7 WSW 9 16 1009.7 - 0.0 - - 10 - - - -
23/06:30am 27.7 SW 10 13 1009.3 - 0.0 - - 10 - - - -
23/06:00am 27.8 SW 10 15 1008.9 - 0.0 - - 10 - - - -
23/05:30am 27.7 SW 8 11 1008.9 - 0.0 - - 10 - - - -
23/05:00am 27.9 SW 9 13 1008.4 - 0.0 - - 10 - - - -
23/04:30am 28.3 WSW 12 17 1007.8 - 0.0 - Partly cloudy 10 - - - -
23/04:00am 28.3 W 12 20 1008.1 - 0.0 - Partly cloudy 10 - - - -
23/03:30am 28.3 WSW 10 17 1008.3 - 0.0 - Partly cloudy 10 - - - -
23/03:00am 28.5 WSW 11 16 1008.7 - 0.0 - Partly cloudy 10 - - - -
23/02:30am 28.4 WSW 10 14 1008.9 - 0.0 - Partly cloudy 10 - - - -
23/02:00am 28.6 WSW 13 18 1009.2 - 0.0 - Partly cloudy 10 - - - -
23/01:30am 28.6 W 11 17 1009.1 - 0.0 - Partly cloudy 10 - - - -
23/01:00am 28.6 W 10 16 1009.8 - 0.0 - Partly cloudy 10 - - - -
23/12:30am 28.6 W 12 17 1010.1 - 0.0 - Partly cloudy 10 - - - -
23/12:00am 28.7 W 11 19 1010.5 - 0.0 - Partly cloudy 10 - - - -
 
Date/Time
CST
Temp
°C
Wind Pressure Rain since
9am
mm
Weather Cloud Vis
km
Sea
Height
m
Swell
Dir  Spd
kts
Gust
kts
hPa Trend Height
m
Period
s
Dir
22/11:30pm 28.7 W 12 16 1010.7 - 0.0 - Partly cloudy 10 - - - -
22/11:00pm 28.6 W 12 17 1010.8 - 0.0 - Partly cloudy 10 - - - -
22/10:30pm 28.6 W 11 19 1010.3 - 0.0 - Partly cloudy 10 - - - -
22/10:00pm 28.6 W 11 17 1010.3 - 0.0 - - 10 - - - -
22/09:30pm 28.5 W 9 14 1010.0 - 0.0 - Partly cloudy 10 - - - -
22/09:00pm 28.6 W 11 16 1009.7 - 0.0 - Partly cloudy 10 - - - -
22/08:30pm 28.8 W 10 15 1009.1 - 0.0 - - 10 - - - -
22/08:00pm 29.0 W 9 13 1008.8 - 0.0 - - 10 - - - -
22/07:30pm 28.9 W 7 9 1007.3 - 0.0 - - 10 - - - -
22/07:00pm 29.3 W 8 12 1007.6 - 0.0 - - 10 - - - -
22/06:30pm 29.4 W 9 13 1007.3 - 0.0 - - 10 - - - -
22/06:00pm 29.6 W 9 13 1006.9 - 0.0 - Partly cloudy 10 - - - -
22/05:30pm 29.7 W 8 12 1006.5 - 0.0 - - 10 - - - -
22/05:00pm 30.0 WSW 10 15 1006.7 - 0.0 - Partly cloudy 10 - - - -
22/04:30pm 30.4 W 9 13 1006.3 - 0.0 - Partly cloudy 10 - - - -
22/04:00pm 31.3 W 11 16 1006.9 - 0.0 - - 10 - - - -
22/03:30pm 30.9 WNW 12 16 1007.0 - 0.0 - - 10 - - - -
22/03:00pm 31.0 WNW 12 19 1007.4 - 0.0 - Partly cloudy 10 - - - -
22/02:30pm 30.4 WNW 11 19 1008.0 - 0.0 - Partly cloudy 10 - - - -
22/02:00pm 30.8 W 13 19 1007.9 - 0.0 - Partly cloudy 10 - - - -
22/01:30pm 30.3 W 12 19 1008.1 - 0.0 - Partly cloudy 10 - - - -
22/01:00pm 31.3 W 12 17 1008.8 - 0.0 - Partly cloudy 10 - - - -
22/12:30pm 30.8 WNW 11 16 1009.1 - 0.0 - Partly cloudy 10 - - - -
22/12:00pm 30.5 W 10 16 1009.3 - 0.0 - Partly cloudy 10 - - - -
22/11:30am 30.0 WSW 11 15 1009.6 - 0.0 - Partly cloudy 10 - - - -
22/11:00am 30.2 WSW 9 13 1010.0 - 0.0 - Partly cloudy 10 - - - -
22/10:30am 30.1 WNW 9 14 1009.8 - 0.0 - Partly cloudy 10 - - - -
22/10:00am 29.9 W 6 10 1010.4 - 0.0 - Partly cloudy 10 - - - -
22/09:30am 29.5 W 5 7 1010.3 - 0.0 - - 10 - - - -
22/09:00am 28.8 SW 2 4 1010.1 - 0.0 - - 10 - - - -
22/08:30am 27.8 S 4 5 1009.8 - 0.0 - Partly cloudy 10 - - - -
22/08:00am 27.0 S 4 5 1009.3 - 0.0 - - 10 - - - -
22/07:30am 26.1 S 2 5 1008.6 - 0.0 - Partly cloudy 10 - - - -
22/07:00am 25.9 SE 1 4 1008.9 - 0.0 - Partly cloudy 10 - - - -
22/06:30am 26.0 CALM 0 0 1008.7 - 0.0 - Partly cloudy 10 - - - -
22/06:00am 26.0 SE 3 4 1008.2 - 0.0 - Partly cloudy 10 - - - -
22/05:30am 26.3 S 4 5 1008.2 - 0.0 - Partly cloudy 10 - - - -
22/05:00am 26.1 SSE 3 5 1007.9 - 0.0 - Partly cloudy 10 - - - -
22/04:30am 26.4 SSW 2 4 1007.7 - 0.0 - Partly cloudy 10 - - - -
22/04:00am 26.4 SSW 1 4 1008.0 - 0.0 - - 10 - - - -
22/03:30am 26.9 S 2 5 1008.0 - 0.0 - - 10 - - - -
22/03:00am 28.1 W 6 9 1008.3 - 0.0 - - 10 - - - -
22/02:30am 28.2 W 7 11 1008.6 - 0.0 - Partly cloudy 10 - - - -
22/02:00am 28.1 W 6 9 1009.0 - 0.0 - Partly cloudy 10 - - - -
22/01:30am 28.1 W 7 10 1008.8 - 0.0 - Partly cloudy 10 - - - -

Other Formats:

Comma delimited format used in spreadsheet applications
http://www.bom.gov.au/fwo/IDD60701/IDD60701.95101.axf

JavaScript Object Notation format (JSON) in row-major order
http://www.bom.gov.au/fwo/IDD60701/IDD60701.95101.json